Flight Track Log - Related Links

Times and Time Zones

All times are in EDT time to prevent confusion due to time zone crossing. See the AAL824 flight status page for this flight to view local times or setup timezone preferences in your user account.

Time Position Orientation Groundspeed Altitude Reporting Facility
EDT Latitude Longitude Course Direction KTS MPH feet Rate Location/Type
Mon 10:11:21 AM 39.5500 -119.7667 137° Southeast 206 237 5,900  Level Northern Cal TRACON
Mon 10:12:21 AM 39.6000 -119.8000 333° Northwest 255 293 7,000 900 Climbing Northern Cal TRACON
Mon 10:13:00 AM 39.3403 -119.4208 135° Southeast  Level FlightAware Approximate
Mon 10:13:01 AM 39.6536 -119.8208 343° North 284 327 7,400  Level Oakland Center
Mon 10:14:00 AM 39.2584 -119.3155 135° Southeast  Level FlightAware Approximate
Mon 10:14:01 AM 39.7314 -119.7867 19° North 346 398 10,000  Level Oakland Center
Mon 10:15:00 AM 39.1841 -119.2074 137° Southeast  Level FlightAware Approximate
Mon 10:15:02 AM 39.7378 -119.6692 86° East 343 395 11,400  Level Oakland Center
Mon 10:16:00 AM 39.0994 -119.1059 137° Southeast  Level FlightAware Approximate
Mon 10:16:03 AM 39.7019 -119.5397 110° East 375 432 13,200  Level Oakland Center
Mon 10:17:03 AM 39.6667 -119.4022 108° East 396 456 15,400 1,983 Climbing Oakland Center
Mon 10:18:04 AM 39.6467 -119.2514 100° East 422 486 17,200 1,721 Climbing Oakland Center
Mon 10:19:05 AM 39.6228 -119.0992 101° East 428 493 18,900 1,736 Climbing Oakland Center
Mon 10:20:05 AM 39.5986 -118.9422 101° East 438 504 20,700 1,686 Climbing Oakland Center
Mon 10:21:06 AM 39.5728 -118.7814 102° East 447 514 22,300 1,377 Climbing Oakland Center
Mon 10:22:07 AM 39.5467 -118.6142 101° East 461 531 23,500 1,240 Climbing Oakland Center
Mon 10:23:07 AM 39.5189 -118.4450 102° East 470 541 24,800 1,240 Climbing Oakland Center
Mon 10:24:08 AM 39.4908 -118.2750 102° East 478 550 26,000 1,426 Climbing Oakland Center
Mon 10:25:09 AM 39.4625 -118.1061 102° East 479 551 27,700 1,388 Climbing Oakland Center
Mon 10:26:09 AM 39.4358 -117.9428 102° East 467 537 28,800 1,289 Climbing Oakland Center
Mon 10:27:10 AM 39.4081 -117.7778 102° East 468 539 30,300 1,082 Climbing Oakland Center
Mon 10:28:11 AM 39.3800 -117.6175 103° East 460 529 31,000 347 Climbing Oakland Center
Mon 10:29:11 AM 39.3525 -117.4550 102° East 462 532 31,000  Level Oakland Center
Mon 10:30:12 AM 39.3228 -117.2844 103° East 463 533 31,000  Level Oakland Center
Mon 10:31:13 AM 39.2953 -117.1306 103° East 462 532 31,000  Level Oakland Center
Mon 10:31:53 AM 39.2725 -116.9989 103° East 462 532 31,000  Level Salt Lake Center
Mon 10:32:54 AM 39.2450 -116.8467 103° East 457 526 31,000  Level Salt Lake Center
Mon 10:33:56 AM 39.2175 -116.6942 103° East 458 527 31,000  Level Salt Lake Center
Mon 10:34:57 AM 39.1858 -116.5144 103° East 460 529 31,000  Level Salt Lake Center
Mon 10:35:59 AM 39.1575 -116.3622 103° East 458 527 31,000  Level Salt Lake Center
Mon 10:37:00 AM 39.1253 -116.1867 103° East 454 522 31,000  Level Salt Lake Center
Mon 10:38:02 AM 39.0953 -116.0269 104° East 454 522 31,000  Level Salt Lake Center
Mon 10:39:04 AM 39.0667 -115.8681 103° East 455 524 31,000  Level Salt Lake Center
Mon 10:40:05 AM 39.0367 -115.7103 104° East 454 522 31,000  Level Salt Lake Center
Mon 10:41:07 AM 39.0064 -115.5511 104° East 458 527 31,000  Level Salt Lake Center
Mon 10:42:08 AM 38.9756 -115.3931 104° East 456 525 31,000  Level Salt Lake Center
Mon 10:43:10 AM 38.9469 -115.2308 103° East 458 527 31,000  Level Salt Lake Center
Mon 10:44:12 AM 38.9153 -115.0728 104° East 459 528 31,000  Level Salt Lake Center
Mon 10:45:13 AM 38.8858 -114.9139 103° East 458 527 31,000  Level Salt Lake Center
Mon 10:46:15 AM 38.8478 -114.7247 104° East 458 527 31,000  Level Salt Lake Center
Mon 10:47:17 AM 38.8181 -114.5656 103° East 458 527 31,000  Level Salt Lake Center
Mon 10:48:18 AM 38.7853 -114.4086 105° East 457 526 31,000  Level Salt Lake Center
Mon 10:49:20 AM 38.7533 -114.2497 104° East 460 529 31,000  Level Salt Lake Center
Mon 10:50:22 AM 38.7214 -114.0925 105° East 458 527 31,000  Level Salt Lake Center
Mon 10:51:23 AM 38.6875 -113.9342 105° East 460 529 31,000  Level Salt Lake Center
Mon 10:52:25 AM 38.6547 -113.7769 105° East 458 527 31,000  Level Salt Lake Center
Mon 10:53:27 AM 38.6156 -113.5894 105° East 456 525 31,000  Level Salt Lake Center
Mon 10:54:29 AM 38.5819 -113.4333 105° East 455 524 31,000  Level Salt Lake Center
Mon 10:55:30 AM 38.5497 -113.2781 105° East 454 522 31,000  Level Salt Lake Center
Mon 10:56:32 AM 38.5158 -113.1206 105° East 456 525 31,000  Level Salt Lake Center
Mon 10:57:34 AM 38.4822 -112.9642 105° East 457 526 31,000  Level Salt Lake Center
Mon 10:58:36 AM 38.4483 -112.8083 105° East 455 524 31,000  Level Salt Lake Center
Mon 10:59:38 AM 38.4144 -112.6514 105° East 457 526 31,000  Level Salt Lake Center
Mon 11:00:39 AM 38.3800 -112.4958 106° East 456 525 31,000 390 Level Salt Lake Center
Mon 11:01:41 AM 38.3383 -112.3092 106° East 455 524 31,800 726 Climbing Salt Lake Center
Mon 11:02:43 AM 38.3050 -112.1550 105° East 453 521 32,500 581 Climbing Salt Lake Center
Mon 11:03:45 AM 38.2711 -112.0019 106° East 450 518 33,000 242 Climbing Salt Lake Center
Mon 11:04:47 AM 38.2358 -111.8467 106° East 454 522 33,000  Level Salt Lake Center
Mon 11:05:49 AM 38.2006 -111.6939 106° East 453 521 33,000  Level Salt Lake Center
Mon 11:06:50 AM 38.1667 -111.5397 106° East 452 520 33,000  Level Salt Lake Center
Mon 11:07:52 AM 38.1297 -111.3872 107° East 452 520 33,000  Level Salt Lake Center
Mon 11:08:54 AM 38.0867 -111.2000 106° East 458 527 33,000  Level Salt Lake Center
Mon 11:09:56 AM 38.0503 -111.0447 107° East 459 528 33,000  Level Salt Lake Center
Mon 11:10:58 AM 38.0158 -110.9022 107° East 460 529 33,000  Level Salt Lake Center
Mon 11:11:54 AM 37.9825 -110.7658 107° East 456 525 33,000  Level Denver Center
Mon 11:12:56 AM 37.9389 -110.5839 107° East 452 520 33,000  Level Denver Center
Mon 11:13:58 AM 37.9025 -110.4297 107° East 457 526 33,000  Level Denver Center
Mon 11:15:00 AM 37.8664 -110.2833 107° East 455 524 33,000  Level Denver Center
Mon 11:16:02 AM 37.8244 -110.1119 107° East 456 525 33,000  Level Denver Center
Mon 11:17:04 AM 37.7881 -109.9633 107° East 460 529 33,000  Level Denver Center
Mon 11:18:06 AM 37.7469 -109.7922 107° East 458 527 33,000  Level Denver Center
Mon 11:19:08 AM 37.7100 -109.6469 108° East 455 524 33,000  Level Denver Center
Mon 11:20:10 AM 37.6672 -109.4769 108° East 455 524 33,000  Level Denver Center
Mon 11:21:12 AM 37.6306 -109.3297 107° East 458 527 33,000  Level Denver Center
Mon 11:22:14 AM 37.5872 -109.1614 108° East 452 520 33,000  Level Denver Center
Mon 11:23:16 AM 37.5500 -109.0144 108° East 457 526 33,000  Level Denver Center
Mon 11:24:18 AM 37.5133 -108.8706 108° East 452 520 33,000  Level Denver Center
Mon 11:25:20 AM 37.4694 -108.7003 108° East 456 525 33,000  Level Denver Center
Mon 11:26:23 AM 37.4317 -108.5536 108° East 458 527 33,000  Level Denver Center
Mon 11:27:25 AM 37.3872 -108.3853 108° East 456 525 33,000  Level Denver Center
Mon 11:28:27 AM 37.3492 -108.2397 108° East 457 526 33,000  Level Denver Center
Mon 11:29:29 AM 37.3050 -108.0728 108° East 451 519 33,000  Level Denver Center
Mon 11:30:31 AM 37.2667 -107.9283 108° East 453 521 33,000  Level Denver Center
Mon 11:31:33 AM 37.2211 -107.7614 109° East 453 521 33,000  Level Denver Center
Mon 11:32:35 AM 37.1828 -107.6164 108° East 455 524 33,000  Level Denver Center
Mon 11:33:37 AM 37.1375 -107.4497 109° East 452 520 33,000  Level Denver Center
Mon 11:34:39 AM 37.0986 -107.3078 109° East 449 517 33,000  Level Denver Center
Mon 11:35:41 AM 37.0603 -107.1667 109° East 448 516 33,000  Level Denver Center
Mon 11:36:43 AM 37.0139 -107.0017 109° East 449 517 33,000  Level Denver Center
Mon 11:37:45 AM 36.9742 -106.8586 109° East 452 520 33,000  Level Denver Center
Mon 11:38:47 AM 36.9297 -106.6942 109° East 446 513 33,000  Level Denver Center
Mon 11:39:49 AM 36.8903 -106.5519 109° East 449 517 33,000  Level Denver Center
Mon 11:40:51 AM 36.8425 -106.3861 110° East 453 521 33,000  Level Denver Center
Mon 11:41:53 AM 36.8036 -106.2453 109° East 451 519 33,000  Level Denver Center
Mon 11:42:55 AM 36.7569 -106.0783 109° East 452 520 33,000  Level Denver Center
Mon 11:43:57 AM 36.7142 -105.9353 110° East 450 518 33,000  Level Denver Center
Mon 11:44:59 AM 36.6589 -105.7769 113° Southeast 455 524 33,000  Level Denver Center
Mon 11:46:01 AM 36.6111 -105.6394 113° Southeast 453 521 33,000 -63 Level Denver Center
Mon 11:46:35 AM 36.5792 -105.5494 114° Southeast 456 525 32,900  Descending Albuquerque Center
Mon 11:47:36 AM 36.5361 -105.4250 113° Southeast 449 517 33,000 49 Climbing Albuquerque Center
Mon 11:48:38 AM 36.4781 -105.2564 113° Southeast 450 518 33,000  Level Albuquerque Center
Mon 11:49:39 AM 36.4272 -105.1119 114° Southeast 451 519 33,000  Level Albuquerque Center
Mon 11:50:41 AM 36.3756 -104.9678 114° Southeast 452 520 33,000  Level Albuquerque Center
Mon 11:51:42 AM 36.3242 -104.8247 114° Southeast 450 518 33,000  Level Albuquerque Center
Mon 11:52:44 AM 36.2731 -104.6808 114° Southeast 451 519 33,000  Level Albuquerque Center
Mon 11:53:45 AM 36.2219 -104.5353 113° Southeast 454 522 33,000  Level Albuquerque Center
Mon 11:54:47 AM 36.1683 -104.3919 115° Southeast 455 524 33,000  Level Albuquerque Center
Mon 11:55:48 AM 36.1156 -104.2472 114° Southeast 455 524 33,000  Level Albuquerque Center
Mon 11:56:50 AM 36.0633 -104.1033 114° Southeast 455 524 33,000  Level Albuquerque Center
Mon 11:57:51 AM 36.0108 -103.9583 114° Southeast 456 525 33,000  Level Albuquerque Center
Mon 11:58:53 AM 35.9583 -103.8133 114° Southeast 457 526 33,000  Level Albuquerque Center
Mon 11:59:54 AM 35.9053 -103.6711 115° Southeast 454 522 33,000  Level Albuquerque Center
Mon 12:00:56 PM 35.8531 -103.5286 114° Southeast 451 519 33,000  Level Albuquerque Center
Mon 12:01:58 PM 35.7989 -103.3842 115° Southeast 456 525 33,000  Level Albuquerque Center
Mon 12:02:59 PM 35.7372 -103.2178 115° Southeast 454 522 33,000  Level Albuquerque Center
Mon 12:04:01 PM 35.6839 -103.0761 115° Southeast 452 520 33,000  Level Albuquerque Center
Mon 12:05:02 PM 35.6292 -102.9331 115° Southeast 456 525 33,000  Level Albuquerque Center
Mon 12:06:04 PM 35.5772 -102.7967 115° Southeast 457 526 33,000  Level Albuquerque Center
Mon 12:07:06 PM 35.5208 -102.6492 115° Southeast 454 522 33,000  Level Albuquerque Center
Mon 12:08:07 PM 35.4708 -102.5161 115° Southeast 456 525 33,000  Level Albuquerque Center
Mon 12:09:09 PM 35.4158 -102.3756 116° Southeast 457 526 33,000  Level Albuquerque Center
Mon 12:10:11 PM 35.3514 -102.2069 115° Southeast 457 526 33,000  Level Albuquerque Center
Mon 12:11:13 PM 35.2969 -102.0683 116° Southeast 455 524 33,000  Level Albuquerque Center
Mon 12:12:15 PM 35.2464 -101.9389 116° Southeast 457 526 33,000  Level Albuquerque Center
Mon 12:13:16 PM 35.1833 -101.7728 115° Southeast 457 526 33,000  Level Albuquerque Center
Mon 12:14:18 PM 35.1322 -101.6450 116° Southeast 458 527 33,000  Level Albuquerque Center
Mon 12:15:20 PM 35.0778 -101.5061 116° Southeast 455 524 33,000  Level Albuquerque Center
Mon 12:16:22 PM 35.0233 -101.3664 115° Southeast 456 525 33,000  Level Albuquerque Center
Mon 12:17:23 PM 34.9614 -101.2133 116° Southeast 458 527 33,000  Level Albuquerque Center
Mon 12:18:25 PM 34.9056 -101.0758 116° Southeast 455 524 33,000  Level Albuquerque Center
Mon 12:19:27 PM 34.8517 -100.9375 115° Southeast 454 522 33,000  Level Albuquerque Center
Mon 12:20:29 PM 34.7842 -100.7722 116° Southeast 456 525 33,000  Level Albuquerque Center
Mon 12:21:31 PM 34.7289 -100.6342 116° Southeast 455 524 33,000  Level Albuquerque Center
Mon 12:22:33 PM 34.6714 -100.4956 117° Southeast 459 528 33,000  Level Albuquerque Center
Mon 12:23:34 PM 34.6147 -100.3575 116° Southeast 457 526 33,000  Level Albuquerque Center
Mon 12:24:36 PM 34.5594 -100.2203 116° Southeast 456 525 33,000  Level Albuquerque Center
Mon 12:25:38 PM 34.4961 -100.0678 117° Southeast 452 520 33,000  Level Albuquerque Center
Mon 12:26:40 PM 34.4397 -99.9292 116° Southeast 457 526 33,000  Level Albuquerque Center
Mon 12:27:42 PM 34.3825 -99.7939 117° Southeast 454 522 33,000  Level Albuquerque Center
Mon 12:28:44 PM 34.3253 -99.6558 117° Southeast 457 526 33,000 -387 Level Albuquerque Center
Mon 12:29:46 PM 34.2675 -99.5189 117° Southeast 456 525 32,200 -1,557 Descending Albuquerque Center
Mon 12:30:55 PM 34.1939 -99.3419 117° Southeast 457 526 29,600 -2,047 Descending Fort Worth Center
Mon 12:31:55 PM 34.1375 -99.2103 117° Southeast 446 513 27,800 -1,800 Descending Fort Worth Center
Mon 12:32:55 PM 34.0831 -99.0761 116° Southeast 446 513 26,000 -1,650 Descending Fort Worth Center
Mon 12:33:55 PM 34.0219 -98.9397 118° Southeast 453 521 24,500 -1,000 Descending Fort Worth Center
Mon 12:34:55 PM 33.9672 -98.8083 117° Southeast 448 516 24,000 -800 Descending Fort Worth Center
Mon 12:35:55 PM 33.9081 -98.6822 119° Southeast 437 503 22,900 -1,500 Descending Fort Worth Center
Mon 12:36:55 PM 33.8550 -98.5514 116° Southeast 437 503 21,000 -1,900 Descending Fort Worth Center
Mon 12:37:55 PM 33.8061 -98.4383 117° Southeast 431 496 19,100 -1,750 Descending Fort Worth Center
Mon 12:38:55 PM 33.7528 -98.3153 118° Southeast 419 482 17,500 -1,650 Descending Fort Worth Center
Mon 12:39:55 PM 33.6950 -98.1850 118° Southeast 404 465 15,800 -1,700 Descending Fort Worth Center
Mon 12:40:55 PM 33.6456 -98.0722 118° Southeast 392 451 14,100 -1,650 Descending Fort Worth Center
Mon 12:41:55 PM 33.6003 -97.9647 117° Southeast 373 429 12,500 -1,400 Descending Fort Worth Center
Mon 12:42:55 PM 33.5528 -97.8672 120° Southeast 355 409 11,300 -750 Descending Fort Worth Center
Mon 12:43:55 PM 33.5028 -97.7872 127° Southeast 313 360 11,000 -150 Descending Fort Worth Center
Mon 12:44:55 PM 33.4447 -97.7172 135° Southeast 297 342 11,000 -750 Level Fort Worth Center
Mon 12:45:55 PM 33.3842 -97.6447 135° Southeast 297 342 9,500 -1,450 Descending Fort Worth Center
Mon 12:46:55 PM 33.3175 -97.5725 138° Southeast 316 364 8,100 -1,250 Descending Fort Worth Center
Mon 12:47:55 PM 33.2403 -97.5400 161° South 304 350 7,000 -1,050 Descending Fort Worth Center
Mon 12:48:55 PM 33.1653 -97.5103 162° South 292 336 6,000 -500 Descending Fort Worth Center
Mon 12:49:55 PM 33.0900 -97.4803 162° South 287 330 6,000  Level Fort Worth Center
Mon 12:50:55 PM 33.0233 -97.4556 163° South 287 330 6,000  Level Fort Worth Center
Mon 12:51:55 PM 32.9397 -97.4258 163° South 287 330 6,000  Level Fort Worth Center
Mon 12:52:55 PM 32.8731 -97.4011 163° South 287 330 6,000  Level Fort Worth Center
Mon 12:53:55 PM 32.7894 -97.3714 163° South 282 325 6,000 -150 Level Fort Worth Center
Mon 12:54:55 PM 32.7247 -97.3467 162° South 282 325 5,700 -500 Descending Fort Worth Center
Mon 12:55:55 PM 32.6600 -97.3172 159° South 282 325 5,000 -700 Descending Fort Worth Center
Mon 12:56:55 PM 32.6142 -97.2358 124° Southeast 268 308 4,300 -612 Descending Fort Worth Center
Mon 12:59:11 PM 32.6333 -97.0833 81° East 188 216 3,000 -398 Descending Dallas / Fort Worth TRACON
Mon 01:00:11 PM 32.6833 -97.0333 40° Northeast 196 226 3,000  Level Dallas / Fort Worth TRACON
Mon 01:01:17 PM 32.7333 -97.0167 16° North 188 216 3,000 -236 Level Dallas / Fort Worth TRACON
Mon 01:02:18 PM 32.7833 -97.0167 360° North 174 200 2,500 -714 Descending Dallas / Fort Worth TRACON
Mon 01:03:23 PM 32.8333 -97.0167 360° North 147 169 1,500 -816 Descending Dallas / Fort Worth TRACON
Mon 01:04:23 PM 32.8667 -97.0167 360° North 141 162 800 -700 Descending Dallas / Fort Worth TRACON

Login

Don't have an account? Register now (free) for customized features, flight alerts, and more!